Weather at Mostyn Airport [CLOSED]

Public forecast

Using degrees Celsius for public forecast. Weather courtesy of forecast.io.

Closest aviation weather report (METAR) to Mostyn Airport

Closest report is Tawau Airport, 18.3 nm (33.9 km) S.

2024/05/28 15:00 (retrieved 1 hour ago)

WBKW 281500Z 18006KT 110V240 5000 RA FEW015 SCT027 27/26 Q1011

Closest aviation forecast (TAF) to Mostyn Airport

Closest forecast is Tawau Airport, 18.3 nm (33.9 km) S.

2024/05/28 12:00 (retrieved 4 hours ago)

TAF WBKW 281100Z 2812/2912 35006KT 9999 FEW016